Casper-Natrona County International Airport
KCPR : now visible

Airfield :











YOU CAN JOIN US ON...

 
LOGIN :

Register | Disclaimer

   EN    FR    IT 

 









Legend :    VFR   Marginal VFR   IFR   Intensive IFR   Very Intensive IFR
Visi :
Ceiling :
>= 8 km
>= 3000ft
5 to 8 km
1000 to 3000 ft
1500m to 5 km
500 to 1000 ft
800 to 1500m
200 to 500 ft
< 800m
< 200 ft
Symbols :   Thunderstorms  Fog  Heavy snow  Heavy precipitations  Wind > 20 kt






- Airport Elevation : 5350 ft
- IATA code : CPR


KCPR - Casper-Natrona County International

CURRENT METAR :
  • 260453Z AUTO 21008KT 10SM BKN085 M02/M06 A3002 RMK AO2 SLP179 T10171056

EXPIRED METARs :
  • 260353Z 32007KT 10SM BKN085 M01/M05 A3001 RMK AO2 SLP179 T10061050
  • 260253Z 23011KT 10SM OVC100 02/M04 A3000 RMK AO2 SLP171 T00171044 53012

TAF KCPR
Valid from the 26 at 00:00 until the 27 at 00:00 UTC


252320Z 2600/2624 22016G28KT P6SM SCT090
FM260600 22012G20KT P6SM FEW090
FM261800 22016G28KT P6SM SCT200



MET'MAP, your aeronautical weather chart ! - Copyright ORBIFLY December 2007 - Disclaimer

ORBIFLY MET'MAP TEAM :

Programming & Development : Alexandra Zaïnal
Concept & original design : Baudouin d'Aumeries
Assistance for programming : Marc-Olivier Méhu
Technical & hardware support : Manuel Goepfert

Contact : metmap@orbifly.com




SOURCES & CREDITS :

   NOAA       Earth
Advisory